sensor_id;sensor_type;location;lat;lon;timestamp;P1;durP1;ratioP1;P2;durP2;ratioP2
25015;SDS011;13029;46.286;7.488;2023-02-16T00:00:26;3.97;;;2.60;;
25015;SDS011;13029;46.286;7.488;2023-02-16T00:02:51;5.25;;;3.10;;
25015;SDS011;13029;46.286;7.488;2023-02-16T00:07:49;7.03;;;2.85;;
25015;SDS011;13029;46.286;7.488;2023-02-16T00:10:15;4.85;;;2.58;;
25015;SDS011;13029;46.286;7.488;2023-02-16T00:12:40;4.03;;;2.60;;
25015;SDS011;13029;46.286;7.488;2023-02-16T00:15:24;4.43;;;2.67;;
25015;SDS011;13029;46.286;7.488;2023-02-16T00:17:57;7.78;;;3.20;;
25015;SDS011;13029;46.286;7.488;2023-02-16T00:20:23;7.07;;;3.10;;
25015;SDS011;13029;46.286;7.488;2023-02-16T00:22:49;9.18;;;3.75;;
25015;SDS011;13029;46.286;7.488;2023-02-16T00:25:14;7.00;;;3.75;;
25015;SDS011;13029;46.286;7.488;2023-02-16T00:27:39;6.45;;;3.20;;
25015;SDS011;13029;46.286;7.488;2023-02-16T00:30:14;7.70;;;2.95;;
25015;SDS011;13029;46.286;7.488;2023-02-16T00:32:40;6.28;;;3.13;;
25015;SDS011;13029;46.286;7.488;2023-02-16T00:35:19;4.78;;;3.20;;
25015;SDS011;13029;46.286;7.488;2023-02-16T00:37:45;4.85;;;2.92;;
25015;SDS011;13029;46.286;7.488;2023-02-16T00:40:12;6.38;;;3.13;;
25015;SDS011;13029;46.286;7.488;2023-02-16T00:42:38;4.80;;;2.70;;
25015;SDS011;13029;46.286;7.488;2023-02-16T00:45:04;4.70;;;2.70;;
25015;SDS011;13029;46.286;7.488;2023-02-16T00:47:37;3.78;;;2.35;;
25015;SDS011;13029;46.286;7.488;2023-02-16T00:50:09;6.88;;;2.80;;
25015;SDS011;13029;46.286;7.488;2023-02-16T00:52:40;4.07;;;2.65;;
25015;SDS011;13029;46.286;7.488;2023-02-16T00:55:11;5.15;;;2.85;;
25015;SDS011;13029;46.286;7.488;2023-02-16T00:57:39;5.70;;;3.03;;
25015;SDS011;13029;46.286;7.488;2023-02-16T01:00:10;3.53;;;2.50;;
25015;SDS011;13029;46.286;7.488;2023-02-16T01:02:39;5.03;;;2.47;;
25015;SDS011;13029;46.286;7.488;2023-02-16T01:05:06;4.18;;;2.40;;
25015;SDS011;13029;46.286;7.488;2023-02-16T01:07:31;3.92;;;2.83;;
25015;SDS011;13029;46.286;7.488;2023-02-16T01:10:18;4.80;;;2.67;;
25015;SDS011;13029;46.286;7.488;2023-02-16T01:13:02;8.27;;;2.40;;
25015;SDS011;13029;46.286;7.488;2023-02-16T01:15:27;3.38;;;1.88;;
25015;SDS011;13029;46.286;7.488;2023-02-16T01:17:53;3.88;;;2.08;;
25015;SDS011;13029;46.286;7.488;2023-02-16T01:20:19;4.63;;;2.20;;
25015;SDS011;13029;46.286;7.488;2023-02-16T01:22:46;3.97;;;2.05;;
25015;SDS011;13029;46.286;7.488;2023-02-16T01:25:12;4.55;;;2.20;;
25015;SDS011;13029;46.286;7.488;2023-02-16T01:27:38;6.78;;;2.67;;
25015;SDS011;13029;46.286;7.488;2023-02-16T01:30:04;3.78;;;2.60;;
25015;SDS011;13029;46.286;7.488;2023-02-16T01:32:30;4.32;;;2.38;;
25015;SDS011;13029;46.286;7.488;2023-02-16T01:34:56;5.53;;;2.28;;
25015;SDS011;13029;46.286;7.488;2023-02-16T01:37:21;3.33;;;2.08;;
25015;SDS011;13029;46.286;7.488;2023-02-16T01:39:47;4.45;;;2.60;;
25015;SDS011;13029;46.286;7.488;2023-02-16T01:42:48;3.92;;;2.10;;
25015;SDS011;13029;46.286;7.488;2023-02-16T01:45:19;2.72;;;1.98;;
25015;SDS011;13029;46.286;7.488;2023-02-16T01:47:55;3.80;;;1.75;;
25015;SDS011;13029;46.286;7.488;2023-02-16T01:50:26;4.32;;;1.67;;
25015;SDS011;13029;46.286;7.488;2023-02-16T01:52:57;2.65;;;1.80;;
25015;SDS011;13029;46.286;7.488;2023-02-16T01:55:29;2.95;;;2.10;;
25015;SDS011;13029;46.286;7.488;2023-02-16T01:58:01;3.88;;;1.98;;
25015;SDS011;13029;46.286;7.488;2023-02-16T02:03:19;4.40;;;1.92;;
25015;SDS011;13029;46.286;7.488;2023-02-16T02:06:12;3.47;;;2.00;;
25015;SDS011;13029;46.286;7.488;2023-02-16T02:14:17;3.55;;;1.90;;
25015;SDS011;13029;46.286;7.488;2023-02-16T02:16:51;3.22;;;1.77;;
25015;SDS011;13029;46.286;7.488;2023-02-16T02:19:19;5.03;;;2.22;;
25015;SDS011;13029;46.286;7.488;2023-02-16T02:22:18;5.38;;;2.35;;
25015;SDS011;13029;46.286;7.488;2023-02-16T02:27:57;4.43;;;2.03;;
25015;SDS011;13029;46.286;7.488;2023-02-16T02:30:40;2.72;;;1.88;;
25015;SDS011;13029;46.286;7.488;2023-02-16T02:35:48;3.33;;;1.95;;
25015;SDS011;13029;46.286;7.488;2023-02-16T02:41:17;3.20;;;1.90;;
25015;SDS011;13029;46.286;7.488;2023-02-16T02:44:13;6.88;;;2.70;;
25015;SDS011;13029;46.286;7.488;2023-02-16T02:46:42;5.53;;;2.72;;
25015;SDS011;13029;46.286;7.488;2023-02-16T02:49:07;4.63;;;2.25;;
25015;SDS011;13029;46.286;7.488;2023-02-16T02:51:32;6.13;;;1.95;;
25015;SDS011;13029;46.286;7.488;2023-02-16T03:00:03;2.80;;;2.00;;
25015;SDS011;13029;46.286;7.488;2023-02-16T03:02:48;7.75;;;2.17;;
25015;SDS011;13029;46.286;7.488;2023-02-16T03:05:15;3.72;;;2.38;;
25015;SDS011;13029;46.286;7.488;2023-02-16T03:07:43;5.35;;;2.05;;
25015;SDS011;13029;46.286;7.488;2023-02-16T03:10:11;3.97;;;2.20;;
25015;SDS011;13029;46.286;7.488;2023-02-16T03:12:57;3.38;;;2.13;;
25015;SDS011;13029;46.286;7.488;2023-02-16T03:15:23;4.72;;;2.13;;
25015;SDS011;13029;46.286;7.488;2023-02-16T03:17:49;4.25;;;2.00;;
25015;SDS011;13029;46.286;7.488;2023-02-16T03:20:34;4.60;;;2.40;;
25015;SDS011;13029;46.286;7.488;2023-02-16T03:23:18;3.38;;;1.98;;
25015;SDS011;13029;46.286;7.488;2023-02-16T03:26:02;6.45;;;2.15;;
25015;SDS011;13029;46.286;7.488;2023-02-16T03:28:46;3.17;;;1.85;;
25015;SDS011;13029;46.286;7.488;2023-02-16T03:31:31;3.55;;;2.03;;
25015;SDS011;13029;46.286;7.488;2023-02-16T03:33:59;4.85;;;2.40;;
25015;SDS011;13029;46.286;7.488;2023-02-16T03:36:25;4.60;;;2.80;;
25015;SDS011;13029;46.286;7.488;2023-02-16T03:38:52;6.85;;;2.63;;
25015;SDS011;13029;46.286;7.488;2023-02-16T03:41:18;5.03;;;2.33;;
25015;SDS011;13029;46.286;7.488;2023-02-16T03:43:43;4.30;;;2.83;;
25015;SDS011;13029;46.286;7.488;2023-02-16T03:46:08;5.20;;;2.92;;
25015;SDS011;13029;46.286;7.488;2023-02-16T03:48:34;4.60;;;2.55;;
25015;SDS011;13029;46.286;7.488;2023-02-16T03:50:59;4.70;;;2.22;;
25015;SDS011;13029;46.286;7.488;2023-02-16T03:53:24;7.70;;;2.83;;
25015;SDS011;13029;46.286;7.488;2023-02-16T03:55:50;5.20;;;2.53;;
25015;SDS011;13029;46.286;7.488;2023-02-16T03:58:17;7.43;;;2.80;;
25015;SDS011;13029;46.286;7.488;2023-02-16T04:00:44;8.95;;;2.90;;
25015;SDS011;13029;46.286;7.488;2023-02-16T04:03:09;7.30;;;3.28;;
25015;SDS011;13029;46.286;7.488;2023-02-16T04:05:35;5.45;;;2.80;;
25015;SDS011;13029;46.286;7.488;2023-02-16T04:08:01;7.40;;;2.53;;
25015;SDS011;13029;46.286;7.488;2023-02-16T04:10:26;7.97;;;2.53;;
25015;SDS011;13029;46.286;7.488;2023-02-16T04:12:51;3.20;;;2.40;;
25015;SDS011;13029;46.286;7.488;2023-02-16T04:15:18;4.90;;;2.67;;
25015;SDS011;13029;46.286;7.488;2023-02-16T04:17:44;5.72;;;2.53;;
25015;SDS011;13029;46.286;7.488;2023-02-16T04:20:12;3.70;;;2.53;;
25015;SDS011;13029;46.286;7.488;2023-02-16T04:22:39;6.57;;;2.85;;
25015;SDS011;13029;46.286;7.488;2023-02-16T04:25:05;7.07;;;3.25;;
25015;SDS011;13029;46.286;7.488;2023-02-16T04:27:30;7.45;;;3.00;;
25015;SDS011;13029;46.286;7.488;2023-02-16T04:29:56;4.50;;;2.50;;
25015;SDS011;13029;46.286;7.488;2023-02-16T04:32:21;4.75;;;2.70;;
25015;SDS011;13029;46.286;7.488;2023-02-16T04:34:47;3.88;;;2.60;;
25015;SDS011;13029;46.286;7.488;2023-02-16T04:37:12;4.53;;;2.70;;
25015;SDS011;13029;46.286;7.488;2023-02-16T04:39:37;5.25;;;2.63;;
25015;SDS011;13029;46.286;7.488;2023-02-16T04:42:03;3.95;;;2.60;;
25015;SDS011;13029;46.286;7.488;2023-02-16T04:44:28;7.07;;;2.80;;
25015;SDS011;13029;46.286;7.488;2023-02-16T04:46:53;3.30;;;1.80;;
25015;SDS011;13029;46.286;7.488;2023-02-16T04:49:19;6.70;;;2.30;;
25015;SDS011;13029;46.286;7.488;2023-02-16T04:51:44;4.63;;;2.33;;
25015;SDS011;13029;46.286;7.488;2023-02-16T04:54:09;4.20;;;2.70;;
25015;SDS011;13029;46.286;7.488;2023-02-16T04:56:35;3.92;;;2.50;;
25015;SDS011;13029;46.286;7.488;2023-02-16T04:59:00;4.78;;;2.38;;
25015;SDS011;13029;46.286;7.488;2023-02-16T05:01:26;4.45;;;2.58;;
25015;SDS011;13029;46.286;7.488;2023-02-16T05:03:52;6.53;;;2.50;;
25015;SDS011;13029;46.286;7.488;2023-02-16T05:06:17;4.70;;;2.08;;
25015;SDS011;13029;46.286;7.488;2023-02-16T05:08:43;6.13;;;2.53;;
25015;SDS011;13029;46.286;7.488;2023-02-16T05:11:09;4.22;;;2.20;;
25015;SDS011;13029;46.286;7.488;2023-02-16T05:13:54;7.00;;;2.30;;
25015;SDS011;13029;46.286;7.488;2023-02-16T05:16:41;4.85;;;2.15;;
25015;SDS011;13029;46.286;7.488;2023-02-16T05:19:06;5.28;;;2.20;;
25015;SDS011;13029;46.286;7.488;2023-02-16T05:21:32;4.20;;;2.50;;
25015;SDS011;13029;46.286;7.488;2023-02-16T05:23:59;3.78;;;2.40;;
25015;SDS011;13029;46.286;7.488;2023-02-16T05:26:29;3.50;;;2.35;;
25015;SDS011;13029;46.286;7.488;2023-02-16T05:28:54;4.00;;;2.10;;
25015;SDS011;13029;46.286;7.488;2023-02-16T05:31:20;4.38;;;2.33;;
25015;SDS011;13029;46.286;7.488;2023-02-16T05:33:46;2.50;;;1.90;;
25015;SDS011;13029;46.286;7.488;2023-02-16T05:36:12;4.85;;;2.03;;
25015;SDS011;13029;46.286;7.488;2023-02-16T05:38:37;3.05;;;1.85;;
25015;SDS011;13029;46.286;7.488;2023-02-16T05:41:02;6.20;;;2.03;;
25015;SDS011;13029;46.286;7.488;2023-02-16T05:43:28;3.15;;;1.75;;
25015;SDS011;13029;46.286;7.488;2023-02-16T05:45:53;3.63;;;1.90;;
25015;SDS011;13029;46.286;7.488;2023-02-16T05:48:18;3.20;;;1.95;;
25015;SDS011;13029;46.286;7.488;2023-02-16T05:50:43;3.38;;;2.38;;
25015;SDS011;13029;46.286;7.488;2023-02-16T05:53:09;3.92;;;2.25;;
25015;SDS011;13029;46.286;7.488;2023-02-16T05:55:34;3.80;;;2.03;;
25015;SDS011;13029;46.286;7.488;2023-02-16T05:57:59;3.10;;;1.80;;
25015;SDS011;13029;46.286;7.488;2023-02-16T06:00:25;4.85;;;2.20;;
25015;SDS011;13029;46.286;7.488;2023-02-16T06:02:50;4.07;;;2.35;;
25015;SDS011;13029;46.286;7.488;2023-02-16T06:05:16;5.80;;;2.28;;
25015;SDS011;13029;46.286;7.488;2023-02-16T06:07:41;3.90;;;2.08;;
25015;SDS011;13029;46.286;7.488;2023-02-16T06:10:06;6.60;;;2.17;;
25015;SDS011;13029;46.286;7.488;2023-02-16T06:12:33;4.70;;;2.05;;
25015;SDS011;13029;46.286;7.488;2023-02-16T06:14:58;4.53;;;2.28;;
25015;SDS011;13029;46.286;7.488;2023-02-16T06:17:24;5.55;;;2.28;;
25015;SDS011;13029;46.286;7.488;2023-02-16T06:19:50;4.30;;;2.00;;
25015;SDS011;13029;46.286;7.488;2023-02-16T06:22:15;3.55;;;2.00;;
25015;SDS011;13029;46.286;7.488;2023-02-16T06:24:40;3.45;;;1.95;;
25015;SDS011;13029;46.286;7.488;2023-02-16T06:27:06;6.82;;;2.20;;
25015;SDS011;13029;46.286;7.488;2023-02-16T06:29:31;3.60;;;1.90;;
25015;SDS011;13029;46.286;7.488;2023-02-16T06:31:56;6.05;;;2.50;;
25015;SDS011;13029;46.286;7.488;2023-02-16T06:34:22;7.13;;;2.38;;
25015;SDS011;13029;46.286;7.488;2023-02-16T06:36:47;4.63;;;1.83;;
25015;SDS011;13029;46.286;7.488;2023-02-16T06:39:12;3.53;;;2.15;;
25015;SDS011;13029;46.286;7.488;2023-02-16T06:41:38;6.40;;;2.05;;
25015;SDS011;13029;46.286;7.488;2023-02-16T06:44:10;4.60;;;2.13;;
25015;SDS011;13029;46.286;7.488;2023-02-16T06:46:37;3.95;;;2.20;;
25015;SDS011;13029;46.286;7.488;2023-02-16T06:49:03;2.90;;;1.92;;
25015;SDS011;13029;46.286;7.488;2023-02-16T06:51:29;2.50;;;1.80;;
25015;SDS011;13029;46.286;7.488;2023-02-16T06:53:54;10.35;;;4.47;;
25015;SDS011;13029;46.286;7.488;2023-02-16T06:56:20;11.10;;;5.80;;
25015;SDS011;13029;46.286;7.488;2023-02-16T06:58:46;8.35;;;3.22;;
25015;SDS011;13029;46.286;7.488;2023-02-16T07:01:11;7.57;;;3.30;;
25015;SDS011;13029;46.286;7.488;2023-02-16T07:03:36;5.85;;;2.42;;
25015;SDS011;13029;46.286;7.488;2023-02-16T07:06:02;7.93;;;2.83;;
25015;SDS011;13029;46.286;7.488;2023-02-16T07:08:27;6.03;;;2.20;;
25015;SDS011;13029;46.286;7.488;2023-02-16T07:10:53;3.03;;;2.08;;
25015;SDS011;13029;46.286;7.488;2023-02-16T07:13:19;8.73;;;2.70;;
25015;SDS011;13029;46.286;7.488;2023-02-16T07:15:44;9.25;;;3.35;;
25015;SDS011;13029;46.286;7.488;2023-02-16T07:18:10;10.80;;;3.55;;
25015;SDS011;13029;46.286;7.488;2023-02-16T07:20:35;11.25;;;3.53;;
25015;SDS011;13029;46.286;7.488;2023-02-16T07:23:01;11.65;;;3.08;;
25015;SDS011;13029;46.286;7.488;2023-02-16T07:25:27;14.10;;;3.70;;
25015;SDS011;13029;46.286;7.488;2023-02-16T07:27:52;7.32;;;2.67;;
25015;SDS011;13029;46.286;7.488;2023-02-16T07:30:18;10.68;;;2.45;;
25015;SDS011;13029;46.286;7.488;2023-02-16T07:32:44;4.65;;;2.20;;
25015;SDS011;13029;46.286;7.488;2023-02-16T07:35:10;5.70;;;2.58;;
25015;SDS011;13029;46.286;7.488;2023-02-16T07:37:35;6.35;;;2.22;;
25015;SDS011;13029;46.286;7.488;2023-02-16T07:40:01;6.20;;;2.22;;
25015;SDS011;13029;46.286;7.488;2023-02-16T07:42:29;5.72;;;2.35;;
25015;SDS011;13029;46.286;7.488;2023-02-16T07:44:55;5.60;;;2.25;;
25015;SDS011;13029;46.286;7.488;2023-02-16T07:47:21;2.75;;;1.90;;
25015;SDS011;13029;46.286;7.488;2023-02-16T07:49:46;3.25;;;2.17;;
25015;SDS011;13029;46.286;7.488;2023-02-16T07:52:11;5.68;;;2.80;;
25015;SDS011;13029;46.286;7.488;2023-02-16T07:54:37;5.15;;;2.65;;
25015;SDS011;13029;46.286;7.488;2023-02-16T07:57:02;4.93;;;2.35;;
25015;SDS011;13029;46.286;7.488;2023-02-16T07:59:28;4.55;;;2.80;;
25015;SDS011;13029;46.286;7.488;2023-02-16T08:01:53;5.65;;;2.47;;
25015;SDS011;13029;46.286;7.488;2023-02-16T08:04:18;4.03;;;2.20;;
25015;SDS011;13029;46.286;7.488;2023-02-16T08:06:44;3.35;;;2.40;;
25015;SDS011;13029;46.286;7.488;2023-02-16T08:09:11;5.18;;;2.45;;
25015;SDS011;13029;46.286;7.488;2023-02-16T08:11:36;4.38;;;2.55;;
25015;SDS011;13029;46.286;7.488;2023-02-16T08:14:01;4.70;;;2.72;;
25015;SDS011;13029;46.286;7.488;2023-02-16T08:16:27;3.95;;;2.30;;
25015;SDS011;13029;46.286;7.488;2023-02-16T08:18:56;4.60;;;2.00;;
25015;SDS011;13029;46.286;7.488;2023-02-16T08:21:22;3.80;;;2.30;;
25015;SDS011;13029;46.286;7.488;2023-02-16T08:23:57;3.63;;;2.20;;
25015;SDS011;13029;46.286;7.488;2023-02-16T08:26:24;4.47;;;2.45;;
25015;SDS011;13029;46.286;7.488;2023-02-16T08:28:51;3.72;;;2.47;;
25015;SDS011;13029;46.286;7.488;2023-02-16T08:31:18;3.42;;;2.45;;
25015;SDS011;13029;46.286;7.488;2023-02-16T08:33:45;4.15;;;2.45;;
25015;SDS011;13029;46.286;7.488;2023-02-16T08:36:33;5.63;;;2.50;;
25015;SDS011;13029;46.286;7.488;2023-02-16T08:38:58;4.38;;;2.80;;
25015;SDS011;13029;46.286;7.488;2023-02-16T08:41:27;5.63;;;3.05;;
25015;SDS011;13029;46.286;7.488;2023-02-16T08:43:54;3.33;;;2.28;;
25015;SDS011;13029;46.286;7.488;2023-02-16T08:46:20;4.18;;;2.53;;
25015;SDS011;13029;46.286;7.488;2023-02-16T08:48:45;7.78;;;2.95;;
25015;SDS011;13029;46.286;7.488;2023-02-16T08:51:15;7.97;;;2.60;;
25015;SDS011;13029;46.286;7.488;2023-02-16T08:53:42;5.50;;;3.10;;
25015;SDS011;13029;46.286;7.488;2023-02-16T08:56:08;5.43;;;3.15;;
25015;SDS011;13029;46.286;7.488;2023-02-16T08:58:35;9.35;;;3.10;;
25015;SDS011;13029;46.286;7.488;2023-02-16T09:01:04;5.03;;;2.67;;
25015;SDS011;13029;46.286;7.488;2023-02-16T09:03:32;4.97;;;2.90;;
25015;SDS011;13029;46.286;7.488;2023-02-16T09:05:59;4.93;;;2.60;;
25015;SDS011;13029;46.286;7.488;2023-02-16T09:08:25;9.05;;;2.38;;
25015;SDS011;13029;46.286;7.488;2023-02-16T09:10:50;5.70;;;2.70;;
25015;SDS011;13029;46.286;7.488;2023-02-16T09:13:15;5.82;;;2.60;;
25015;SDS011;13029;46.286;7.488;2023-02-16T09:15:41;5.72;;;2.70;;
25015;SDS011;13029;46.286;7.488;2023-02-16T09:18:07;4.57;;;2.67;;
25015;SDS011;13029;46.286;7.488;2023-02-16T09:20:35;6.75;;;2.53;;
25015;SDS011;13029;46.286;7.488;2023-02-16T09:23:03;4.93;;;2.78;;
25015;SDS011;13029;46.286;7.488;2023-02-16T09:25:29;5.72;;;2.88;;
25015;SDS011;13029;46.286;7.488;2023-02-16T09:27:54;4.60;;;2.65;;
25015;SDS011;13029;46.286;7.488;2023-02-16T09:30:19;5.03;;;2.88;;
25015;SDS011;13029;46.286;7.488;2023-02-16T09:32:45;4.85;;;3.30;;
25015;SDS011;13029;46.286;7.488;2023-02-16T09:35:11;5.32;;;2.90;;
25015;SDS011;13029;46.286;7.488;2023-02-16T09:37:36;6.70;;;3.13;;
25015;SDS011;13029;46.286;7.488;2023-02-16T09:40:01;7.28;;;3.58;;
25015;SDS011;13029;46.286;7.488;2023-02-16T09:45:14;7.43;;;3.80;;
25015;SDS011;13029;46.286;7.488;2023-02-16T09:47:45;7.28;;;3.65;;
25015;SDS011;13029;46.286;7.488;2023-02-16T09:52:38;8.70;;;3.78;;
25015;SDS011;13029;46.286;7.488;2023-02-16T09:55:15;7.90;;;3.17;;
25015;SDS011;13029;46.286;7.488;2023-02-16T09:57:46;6.22;;;3.58;;
25015;SDS011;13029;46.286;7.488;2023-02-16T10:03:00;13.13;;;3.72;;
25015;SDS011;13029;46.286;7.488;2023-02-16T10:08:24;8.63;;;3.83;;
25015;SDS011;13029;46.286;7.488;2023-02-16T10:13:29;8.07;;;4.15;;
25015;SDS011;13029;46.286;7.488;2023-02-16T10:16:04;12.10;;;4.25;;
25015;SDS011;13029;46.286;7.488;2023-02-16T10:18:36;8.63;;;4.30;;
25015;SDS011;13029;46.286;7.488;2023-02-16T10:21:10;7.65;;;4.68;;
25015;SDS011;13029;46.286;7.488;2023-02-16T10:23:42;8.55;;;3.85;;
25015;SDS011;13029;46.286;7.488;2023-02-16T10:26:17;10.73;;;4.75;;
25015;SDS011;13029;46.286;7.488;2023-02-16T10:36:40;8.98;;;4.68;;
25015;SDS011;13029;46.286;7.488;2023-02-16T10:42:17;9.18;;;5.10;;
25015;SDS011;13029;46.286;7.488;2023-02-16T10:44:45;12.55;;;4.88;;
25015;SDS011;13029;46.286;7.488;2023-02-16T10:47:46;9.80;;;4.43;;
25015;SDS011;13029;46.286;7.488;2023-02-16T10:50:06;7.65;;;4.55;;
25015;SDS011;13029;46.286;7.488;2023-02-16T10:52:43;10.05;;;4.60;;
25015;SDS011;13029;46.286;7.488;2023-02-16T10:55:10;8.60;;;4.10;;
25015;SDS011;13029;46.286;7.488;2023-02-16T10:57:36;8.32;;;4.47;;
25015;SDS011;13029;46.286;7.488;2023-02-16T11:00:05;8.07;;;4.22;;
25015;SDS011;13029;46.286;7.488;2023-02-16T11:02:40;8.45;;;3.60;;
25015;SDS011;13029;46.286;7.488;2023-02-16T11:07:56;6.07;;;4.03;;
25015;SDS011;13029;46.286;7.488;2023-02-16T11:10:33;6.88;;;3.58;;
25015;SDS011;13029;46.286;7.488;2023-02-16T11:13:00;8.60;;;3.97;;
25015;SDS011;13029;46.286;7.488;2023-02-16T11:15:26;9.20;;;4.25;;
25015;SDS011;13029;46.286;7.488;2023-02-16T11:17:53;8.90;;;4.22;;
25015;SDS011;13029;46.286;7.488;2023-02-16T11:23:11;6.90;;;3.75;;
25015;SDS011;13029;46.286;7.488;2023-02-16T11:28:42;6.93;;;3.10;;
25015;SDS011;13029;46.286;7.488;2023-02-16T11:34:01;7.95;;;3.25;;
25015;SDS011;13029;46.286;7.488;2023-02-16T11:36:36;6.53;;;3.30;;
25015;SDS011;13029;46.286;7.488;2023-02-16T11:41:42;3.60;;;2.78;;
25015;SDS011;13029;46.286;7.488;2023-02-16T11:44:14;3.97;;;2.88;;
25015;SDS011;13029;46.286;7.488;2023-02-16T11:46:53;4.13;;;2.80;;
25015;SDS011;13029;46.286;7.488;2023-02-16T11:49:21;5.00;;;2.60;;
25015;SDS011;13029;46.286;7.488;2023-02-16T11:51:53;4.20;;;2.80;;
25015;SDS011;13029;46.286;7.488;2023-02-16T11:54:18;4.07;;;2.72;;
25015;SDS011;13029;46.286;7.488;2023-02-16T11:56:44;5.50;;;2.85;;
25015;SDS011;13029;46.286;7.488;2023-02-16T11:59:25;3.85;;;2.50;;
25015;SDS011;13029;46.286;7.488;2023-02-16T12:07:23;6.97;;;2.92;;
25015;SDS011;13029;46.286;7.488;2023-02-16T12:10:18;5.05;;;2.78;;
25015;SDS011;13029;46.286;7.488;2023-02-16T12:12:59;4.63;;;2.67;;
25015;SDS011;13029;46.286;7.488;2023-02-16T12:15:38;5.38;;;3.10;;
25015;SDS011;13029;46.286;7.488;2023-02-16T12:39:35;6.80;;;3.67;;
25015;SDS011;13029;46.286;7.488;2023-02-16T12:45:15;9.30;;;4.00;;
25015;SDS011;13029;46.286;7.488;2023-02-16T12:47:49;6.82;;;3.05;;
25015;SDS011;13029;46.286;7.488;2023-02-16T12:50:22;8.13;;;3.45;;
25015;SDS011;13029;46.286;7.488;2023-02-16T12:52:53;5.78;;;3.20;;
25015;SDS011;13029;46.286;7.488;2023-02-16T12:55:38;6.78;;;3.80;;
25015;SDS011;13029;46.286;7.488;2023-02-16T13:00:41;7.00;;;2.65;;
25015;SDS011;13029;46.286;7.488;2023-02-16T13:06:24;6.78;;;2.97;;
25015;SDS011;13029;46.286;7.488;2023-02-16T13:11:55;6.20;;;2.40;;
25015;SDS011;13029;46.286;7.488;2023-02-16T13:14:24;8.63;;;2.25;;
25015;SDS011;13029;46.286;7.488;2023-02-16T13:16:56;5.25;;;2.20;;
25015;SDS011;13029;46.286;7.488;2023-02-16T13:19:23;3.92;;;2.28;;
25015;SDS011;13029;46.286;7.488;2023-02-16T13:24:23;5.35;;;2.35;;
25015;SDS011;13029;46.286;7.488;2023-02-16T13:43:51;5.07;;;2.05;;
25015;SDS011;13029;46.286;7.488;2023-02-16T13:46:24;7.43;;;2.83;;
25015;SDS011;13029;46.286;7.488;2023-02-16T13:48:58;9.93;;;2.53;;
25015;SDS011;13029;46.286;7.488;2023-02-16T13:51:25;12.10;;;2.95;;
25015;SDS011;13029;46.286;7.488;2023-02-16T13:53:55;8.02;;;2.50;;
25015;SDS011;13029;46.286;7.488;2023-02-16T14:01:52;6.68;;;2.38;;
25015;SDS011;13029;46.286;7.488;2023-02-16T14:19:53;6.38;;;2.60;;
25015;SDS011;13029;46.286;7.488;2023-02-16T14:22:28;6.20;;;2.70;;
25015;SDS011;13029;46.286;7.488;2023-02-16T14:25:00;6.43;;;2.67;;
25015;SDS011;13029;46.286;7.488;2023-02-16T14:27:44;11.27;;;3.03;;
25015;SDS011;13029;46.286;7.488;2023-02-16T14:30:26;8.05;;;3.00;;
25015;SDS011;13029;46.286;7.488;2023-02-16T14:33:00;4.47;;;2.22;;
25015;SDS011;13029;46.286;7.488;2023-02-16T14:35:32;7.97;;;2.55;;
25015;SDS011;13029;46.286;7.488;2023-02-16T14:37:59;6.63;;;2.40;;
25015;SDS011;13029;46.286;7.488;2023-02-16T14:43:04;3.55;;;2.50;;
25015;SDS011;13029;46.286;7.488;2023-02-16T14:54:01;5.38;;;3.00;;
25015;SDS011;13029;46.286;7.488;2023-02-16T14:56:38;7.93;;;3.05;;
25015;SDS011;13029;46.286;7.488;2023-02-16T15:01:58;7.97;;;2.78;;
25015;SDS011;13029;46.286;7.488;2023-02-16T15:04:42;7.05;;;3.13;;
25015;SDS011;13029;46.286;7.488;2023-02-16T15:07:08;6.45;;;3.03;;
25015;SDS011;13029;46.286;7.488;2023-02-16T15:09:34;6.97;;;2.60;;
25015;SDS011;13029;46.286;7.488;2023-02-16T15:12:03;4.80;;;3.20;;
25015;SDS011;13029;46.286;7.488;2023-02-16T15:19:55;5.75;;;3.22;;
25015;SDS011;13029;46.286;7.488;2023-02-16T15:22:23;7.45;;;3.33;;
25015;SDS011;13029;46.286;7.488;2023-02-16T15:24:53;5.90;;;3.30;;
25015;SDS011;13029;46.286;7.488;2023-02-16T15:27:22;7.88;;;3.55;;
25015;SDS011;13029;46.286;7.488;2023-02-16T15:32:59;4.30;;;3.00;;
25015;SDS011;13029;46.286;7.488;2023-02-16T15:35:27;6.88;;;3.50;;
25015;SDS011;13029;46.286;7.488;2023-02-16T15:38:04;6.80;;;3.15;;
25015;SDS011;13029;46.286;7.488;2023-02-16T15:40:35;6.82;;;3.30;;
25015;SDS011;13029;46.286;7.488;2023-02-16T15:45:34;12.32;;;3.72;;
25015;SDS011;13029;46.286;7.488;2023-02-16T15:50:41;8.13;;;3.22;;
25015;SDS011;13029;46.286;7.488;2023-02-16T15:53:10;6.57;;;3.80;;
25015;SDS011;13029;46.286;7.488;2023-02-16T15:55:40;8.63;;;3.72;;
25015;SDS011;13029;46.286;7.488;2023-02-16T15:58:09;16.35;;;4.68;;
25015;SDS011;13029;46.286;7.488;2023-02-16T16:00:36;11.45;;;3.80;;
25015;SDS011;13029;46.286;7.488;2023-02-16T16:03:06;7.25;;;2.97;;
25015;SDS011;13029;46.286;7.488;2023-02-16T16:05:32;6.95;;;3.22;;
25015;SDS011;13029;46.286;7.488;2023-02-16T16:08:00;7.63;;;3.58;;
25015;SDS011;13029;46.286;7.488;2023-02-16T16:10:34;8.88;;;3.70;;
25015;SDS011;13029;46.286;7.488;2023-02-16T16:13:01;6.82;;;4.18;;
25015;SDS011;13029;46.286;7.488;2023-02-16T16:15:33;6.22;;;3.75;;
25015;SDS011;13029;46.286;7.488;2023-02-16T16:18:02;8.57;;;3.70;;
25015;SDS011;13029;46.286;7.488;2023-02-16T16:20:36;6.18;;;3.20;;
25015;SDS011;13029;46.286;7.488;2023-02-16T16:23:04;7.75;;;3.13;;
25015;SDS011;13029;46.286;7.488;2023-02-16T16:25:46;6.72;;;2.97;;
25015;SDS011;13029;46.286;7.488;2023-02-16T16:28:13;6.32;;;3.20;;
25015;SDS011;13029;46.286;7.488;2023-02-16T16:31:07;7.97;;;2.85;;
25015;SDS011;13029;46.286;7.488;2023-02-16T16:33:52;9.10;;;2.55;;
25015;SDS011;13029;46.286;7.488;2023-02-16T16:36:17;5.70;;;2.83;;
25015;SDS011;13029;46.286;7.488;2023-02-16T16:38:43;5.03;;;3.20;;
25015;SDS011;13029;46.286;7.488;2023-02-16T16:41:23;8.35;;;2.60;;
25015;SDS011;13029;46.286;7.488;2023-02-16T16:43:52;8.85;;;2.90;;
25015;SDS011;13029;46.286;7.488;2023-02-16T16:46:25;7.72;;;2.80;;
25015;SDS011;13029;46.286;7.488;2023-02-16T16:48:52;9.60;;;3.50;;
25015;SDS011;13029;46.286;7.488;2023-02-16T16:51:33;4.57;;;2.60;;
25015;SDS011;13029;46.286;7.488;2023-02-16T16:54:03;5.30;;;2.63;;
25015;SDS011;13029;46.286;7.488;2023-02-16T16:56:34;6.63;;;3.25;;
25015;SDS011;13029;46.286;7.488;2023-02-16T16:59:00;7.43;;;2.63;;
25015;SDS011;13029;46.286;7.488;2023-02-16T17:01:26;9.93;;;3.10;;
25015;SDS011;13029;46.286;7.488;2023-02-16T17:03:52;4.40;;;2.58;;
25015;SDS011;13029;46.286;7.488;2023-02-16T17:06:18;7.10;;;2.55;;
25015;SDS011;13029;46.286;7.488;2023-02-16T17:08:44;8.82;;;2.75;;
25015;SDS011;13029;46.286;7.488;2023-02-16T17:11:32;8.05;;;2.63;;
25015;SDS011;13029;46.286;7.488;2023-02-16T17:14:15;6.18;;;2.33;;
25015;SDS011;13029;46.286;7.488;2023-02-16T17:16:43;4.47;;;2.40;;
25015;SDS011;13029;46.286;7.488;2023-02-16T17:19:11;6.95;;;2.47;;
25015;SDS011;13029;46.286;7.488;2023-02-16T17:21:37;3.67;;;2.25;;
25015;SDS011;13029;46.286;7.488;2023-02-16T17:24:02;5.05;;;2.78;;
25015;SDS011;13029;46.286;7.488;2023-02-16T17:26:28;8.65;;;3.38;;
25015;SDS011;13029;46.286;7.488;2023-02-16T17:28:53;7.53;;;3.10;;
25015;SDS011;13029;46.286;7.488;2023-02-16T17:31:18;8.60;;;3.55;;
25015;SDS011;13029;46.286;7.488;2023-02-16T17:33:43;5.97;;;2.97;;
25015;SDS011;13029;46.286;7.488;2023-02-16T17:36:10;8.35;;;3.08;;
25015;SDS011;13029;46.286;7.488;2023-02-16T17:38:37;6.28;;;3.10;;
25015;SDS011;13029;46.286;7.488;2023-02-16T17:41:02;6.75;;;2.90;;
25015;SDS011;13029;46.286;7.488;2023-02-16T17:43:28;3.85;;;2.45;;
25015;SDS011;13029;46.286;7.488;2023-02-16T17:45:54;4.50;;;2.72;;
25015;SDS011;13029;46.286;7.488;2023-02-16T17:48:22;4.20;;;2.90;;
25015;SDS011;13029;46.286;7.488;2023-02-16T17:50:57;5.65;;;2.67;;